createdAt,value
2023-02-16T00:02:16.079Z,100603.91
2023-02-16T00:04:49.928Z,100609.20
2023-02-16T00:07:24.317Z,100605.70
2023-02-16T00:09:58.373Z,100611.00
2023-02-16T00:12:49.952Z,100613.73
2023-02-16T00:15:24.496Z,100618.30
2023-02-16T00:18:03.021Z,100613.91
2023-02-16T00:20:37.738Z,100614.84
2023-02-16T00:23:10.928Z,100616.12
2023-02-16T00:25:45.262Z,100622.13
2023-02-16T00:28:21.590Z,100623.59
2023-02-16T00:30:55.504Z,100614.42
2023-02-16T00:33:31.402Z,100614.38
2023-02-16T00:36:05.478Z,100612.89
2023-02-16T00:38:40.127Z,100616.22
2023-02-16T00:41:43.404Z,100618.05
2023-02-16T00:44:21.413Z,100616.46
2023-02-16T00:46:56.326Z,100620.72
2023-02-16T00:49:30.238Z,100621.30
2023-02-16T00:52:16.874Z,100617.15
2023-02-16T00:54:51.060Z,100622.47
2023-02-16T00:57:24.980Z,100622.84
2023-02-16T01:00:04.254Z,100622.12
2023-02-16T01:02:38.629Z,100629.45
2023-02-16T01:05:13.182Z,100627.61
2023-02-16T01:08:05.626Z,100626.16
2023-02-16T01:10:58.535Z,100621.28
2023-02-16T01:13:34.521Z,100628.78
2023-02-16T01:16:14.082Z,100625.46
2023-02-16T01:18:49.236Z,100626.39
2023-02-16T01:21:25.365Z,100624.36
2023-02-16T01:23:58.994Z,100633.89
2023-02-16T01:26:32.373Z,100638.83
2023-02-16T01:29:05.399Z,100633.71
2023-02-16T01:31:38.832Z,100640.31
2023-02-16T01:34:12.604Z,100642.72
2023-02-16T01:36:48.848Z,100648.38
2023-02-16T01:39:22.297Z,100646.92
2023-02-16T01:42:26.669Z,100648.02
2023-02-16T01:45:01.510Z,100651.49
2023-02-16T01:47:57.446Z,100651.31
2023-02-16T01:50:36.465Z,100649.10
2023-02-16T01:53:15.823Z,100646.55
2023-02-16T01:55:50.702Z,100653.87
2023-02-16T01:58:41.175Z,100654.98
2023-02-16T02:01:38.891Z,100663.55
2023-02-16T02:04:35.725Z,100656.25
2023-02-16T02:07:08.356Z,100657.70
2023-02-16T02:09:45.651Z,100654.83
2023-02-16T02:12:27.285Z,100654.47
2023-02-16T02:15:00.730Z,100654.81
2023-02-16T02:17:33.782Z,100657.02
2023-02-16T02:20:30.569Z,100657.77
2023-02-16T02:23:30.383Z,100662.89
2023-02-16T02:26:15.648Z,100661.25
2023-02-16T02:28:57.687Z,100663.97
2023-02-16T02:31:50.195Z,100671.82
2023-02-16T02:34:47.042Z,100672.75
2023-02-16T02:37:49.918Z,100671.48
2023-02-16T02:40:38.800Z,100680.20
2023-02-16T02:43:34.214Z,100681.13
2023-02-16T02:46:23.722Z,100687.29
2023-02-16T02:48:56.565Z,100690.58
2023-02-16T02:51:29.403Z,100689.13
2023-02-16T02:54:42.250Z,100697.52
2023-02-16T02:57:49.626Z,100696.80
2023-02-16T03:00:48.144Z,100696.62
2023-02-16T03:03:35.284Z,100704.87
2023-02-16T03:06:20.178Z,100696.66
2023-02-16T03:09:14.509Z,100699.56
2023-02-16T03:12:05.402Z,100692.99
2023-02-16T03:14:40.863Z,100700.66
2023-02-16T03:17:37.365Z,100702.86
2023-02-16T03:20:31.157Z,100707.26
2023-02-16T03:23:22.317Z,100714.00
2023-02-16T03:26:13.672Z,100715.64
2023-02-16T03:29:05.600Z,100717.86
2023-02-16T03:31:39.251Z,100717.28
2023-02-16T03:34:12.150Z,100724.78
2023-02-16T03:36:46.061Z,100720.04
2023-02-16T03:39:19.645Z,100728.80
2023-02-16T03:41:54.009Z,100729.55
2023-02-16T03:44:26.661Z,100734.28
2023-02-16T03:46:59.360Z,100729.17
2023-02-16T03:49:32.141Z,100727.91
2023-02-16T03:52:04.959Z,100737.78
2023-02-16T03:54:37.792Z,100741.41
2023-02-16T03:57:11.171Z,100736.30
2023-02-16T03:59:43.970Z,100744.71
2023-02-16T04:02:16.772Z,100748.37
2023-02-16T04:04:49.475Z,100751.48
2023-02-16T04:07:22.385Z,100755.14
2023-02-16T04:09:55.079Z,100758.60
2023-02-16T04:12:36.728Z,100762.81
2023-02-16T04:15:11.609Z,100757.90
2023-02-16T04:17:45.249Z,100757.34
2023-02-16T04:20:20.895Z,100763.35
2023-02-16T04:22:54.724Z,100763.55
2023-02-16T04:25:27.750Z,100764.84
2023-02-16T04:28:00.891Z,100768.83
2023-02-16T04:30:35.693Z,100774.87
2023-02-16T04:33:09.091Z,100775.79
2023-02-16T04:35:42.186Z,100777.41
2023-02-16T04:38:16.077Z,100771.59
2023-02-16T04:40:48.775Z,100767.55
2023-02-16T04:43:21.497Z,100769.03
2023-02-16T04:45:54.439Z,100769.41
2023-02-16T04:48:27.462Z,100780.00
2023-02-16T04:51:00.108Z,100771.39
2023-02-16T04:53:32.817Z,100769.58
2023-02-16T04:56:05.937Z,100777.98
2023-02-16T04:58:38.709Z,100770.50
2023-02-16T05:01:13.306Z,100774.14
2023-02-16T05:03:45.960Z,100780.70
2023-02-16T05:06:19.117Z,100778.52
2023-02-16T05:08:52.057Z,100783.61
2023-02-16T05:11:43.429Z,100783.26
2023-02-16T05:14:43.156Z,100794.93
2023-02-16T05:17:24.239Z,100793.45
2023-02-16T05:19:59.154Z,100794.39
2023-02-16T05:22:35.927Z,100790.18
2023-02-16T05:25:09.136Z,100794.39
2023-02-16T05:27:43.048Z,100798.95
2023-02-16T05:30:16.479Z,100799.13
2023-02-16T05:32:49.581Z,100805.15
2023-02-16T05:35:23.050Z,100799.66
2023-02-16T05:37:56.959Z,100803.30
2023-02-16T05:40:29.847Z,100800.50
2023-02-16T05:43:02.866Z,100799.77
2023-02-16T05:45:36.639Z,100795.13
2023-02-16T05:48:10.526Z,100793.81
2023-02-16T05:50:43.527Z,100797.11
2023-02-16T05:53:17.091Z,100796.94
2023-02-16T05:55:51.692Z,100798.19
2023-02-16T05:58:24.607Z,100799.45
2023-02-16T06:00:58.423Z,100798.47
2023-02-16T06:03:33.217Z,100788.55
2023-02-16T06:06:06.950Z,100781.05
2023-02-16T06:08:39.943Z,100788.52
2023-02-16T06:11:30.967Z,100798.56
2023-02-16T06:14:06.928Z,100802.23
2023-02-16T06:16:41.454Z,100804.97
2023-02-16T06:19:16.380Z,100808.06
2023-02-16T06:21:49.692Z,100805.88
2023-02-16T06:24:22.367Z,100805.32
2023-02-16T06:26:55.440Z,100802.76
2023-02-16T06:29:28.245Z,100798.74
2023-02-16T06:32:01.306Z,100802.94
2023-02-16T06:34:34.311Z,100805.47
2023-02-16T06:37:07.066Z,100808.34
2023-02-16T06:39:40.216Z,100805.89
2023-02-16T06:42:12.868Z,100812.92
2023-02-16T06:44:45.532Z,100811.78
2023-02-16T06:47:19.212Z,100814.09
2023-02-16T06:49:51.984Z,100816.48
2023-02-16T06:52:25.332Z,100820.37
2023-02-16T06:54:58.203Z,100823.84
2023-02-16T06:57:31.654Z,100818.02
2023-02-16T07:00:07.016Z,100824.35
2023-02-16T07:02:39.964Z,100830.64
2023-02-16T07:05:12.791Z,100826.03
2023-02-16T07:07:45.584Z,100818.03
2023-02-16T07:10:18.469Z,100821.02
2023-02-16T07:12:51.238Z,100825.34
2023-02-16T07:15:24.630Z,100829.15
2023-02-16T07:17:57.472Z,100826.84
2023-02-16T07:20:30.250Z,100831.45
2023-02-16T07:23:03.062Z,100828.96
2023-02-16T07:25:37.088Z,100832.50
2023-02-16T07:28:10.008Z,100834.89
2023-02-16T07:30:43.290Z,100828.13
2023-02-16T07:33:17.128Z,100830.52
2023-02-16T07:35:50.492Z,100829.45
2023-02-16T07:38:23.702Z,100830.35
2023-02-16T07:40:56.482Z,100834.30
2023-02-16T07:43:29.610Z,100835.75
2023-02-16T07:46:02.742Z,100830.84
2023-02-16T07:48:37.443Z,100825.25
2023-02-16T07:51:10.683Z,100827.44
2023-02-16T07:53:43.360Z,100823.33
2023-02-16T07:56:30.521Z,100826.38
2023-02-16T07:59:03.864Z,100822.73
2023-02-16T08:01:38.496Z,100835.26
2023-02-16T08:04:11.404Z,100834.40
2023-02-16T08:06:46.180Z,100832.39
2023-02-16T08:09:18.981Z,100821.16
2023-02-16T08:11:52.411Z,100823.98
2023-02-16T08:14:25.164Z,100817.56
2023-02-16T08:16:58.273Z,100817.69
2023-02-16T08:19:31.221Z,100824.74
2023-02-16T08:22:04.803Z,100820.50
2023-02-16T08:24:38.241Z,100820.84
2023-02-16T08:27:11.092Z,100821.36
2023-02-16T08:29:45.751Z,100820.70
2023-02-16T08:32:19.032Z,100823.09
2023-02-16T08:35:10.265Z,100823.99
2023-02-16T08:37:42.947Z,100832.03
2023-02-16T08:40:15.536Z,100830.98
2023-02-16T08:42:48.325Z,100822.95
2023-02-16T08:45:21.942Z,100828.80
2023-02-16T08:47:55.886Z,100826.52
2023-02-16T08:50:29.128Z,100830.15
2023-02-16T08:53:02.668Z,100839.23
2023-02-16T08:55:36.035Z,100837.52
2023-02-16T08:58:09.119Z,100838.06
2023-02-16T09:00:43.658Z,100845.17
2023-02-16T09:03:19.323Z,100842.20
2023-02-16T09:05:53.172Z,100836.57
2023-02-16T09:08:26.512Z,100831.70
2023-02-16T09:11:02.923Z,100836.03
2023-02-16T09:13:40.430Z,100834.19
2023-02-16T09:16:18.996Z,100842.86
2023-02-16T09:18:53.892Z,100843.08
2023-02-16T09:21:27.103Z,100837.55
2023-02-16T09:24:01.872Z,100840.95
2023-02-16T09:26:52.116Z,100842.04
2023-02-16T09:29:24.875Z,100844.95
2023-02-16T09:31:57.639Z,100847.37
2023-02-16T09:34:30.317Z,100856.61
2023-02-16T09:37:02.952Z,100850.13
2023-02-16T09:39:36.288Z,100841.66
2023-02-16T09:42:28.950Z,100843.92
2023-02-16T09:45:12.106Z,100841.67
2023-02-16T09:47:47.733Z,100840.45
2023-02-16T09:50:38.646Z,100843.70
2023-02-16T09:53:08.632Z,100846.14
2023-02-16T09:55:58.339Z,100842.75
2023-02-16T09:58:50.766Z,100846.03
2023-02-16T10:01:51.156Z,100834.41
2023-02-16T10:04:54.617Z,100841.53
2023-02-16T10:07:42.748Z,100842.88
2023-02-16T10:10:17.669Z,100841.64
2023-02-16T10:13:16.304Z,100841.04
2023-02-16T10:15:49.933Z,100834.41
2023-02-16T10:18:27.033Z,100831.27
2023-02-16T10:21:01.909Z,100837.73
2023-02-16T10:23:48.059Z,100826.80
2023-02-16T10:26:32.956Z,100831.66
2023-02-16T10:29:07.820Z,100838.74
2023-02-16T10:31:47.382Z,100835.55
2023-02-16T10:34:29.502Z,100831.30
2023-02-16T10:37:17.668Z,100844.42
2023-02-16T10:40:15.819Z,100839.58
2023-02-16T10:42:56.463Z,100843.37
2023-02-16T10:45:45.257Z,100843.89
2023-02-16T10:48:20.690Z,100841.77
2023-02-16T10:50:58.903Z,100844.05
2023-02-16T10:53:51.044Z,100847.22
2023-02-16T10:56:45.364Z,100845.42
2023-02-16T10:59:23.900Z,100847.70
2023-02-16T11:02:01.654Z,100847.02
2023-02-16T11:04:42.978Z,100847.02
2023-02-16T11:07:22.303Z,100844.11
2023-02-16T11:09:57.417Z,100840.09
2023-02-16T11:12:39.848Z,100844.55
2023-02-16T11:15:19.123Z,100836.25
2023-02-16T11:18:01.208Z,100844.33
2023-02-16T11:20:46.124Z,100842.19
2023-02-16T11:23:25.747Z,100839.58
2023-02-16T11:26:05.741Z,100837.95
2023-02-16T11:28:44.422Z,100838.20
2023-02-16T11:31:34.932Z,100835.60
2023-02-16T11:34:11.767Z,100840.27
2023-02-16T11:36:47.112Z,100834.92
2023-02-16T11:39:27.518Z,100837.48
2023-02-16T11:42:05.234Z,100834.75
2023-02-16T11:44:41.406Z,100837.31
2023-02-16T11:47:37.718Z,100834.70
2023-02-16T11:50:31.533Z,100831.38
2023-02-16T11:53:16.358Z,100841.72
2023-02-16T11:55:49.968Z,100838.52
2023-02-16T11:58:28.140Z,100837.05
2023-02-16T12:01:21.639Z,100846.66
2023-02-16T12:03:59.416Z,100843.23
2023-02-16T12:06:41.422Z,100847.59
2023-02-16T12:09:23.184Z,100849.58
2023-02-16T12:12:13.965Z,100847.66
2023-02-16T12:14:52.891Z,100847.66
2023-02-16T12:17:45.975Z,100855.09
2023-02-16T12:20:36.808Z,100848.88
2023-02-16T12:23:24.610Z,100850.86
2023-02-16T12:26:17.063Z,100849.08
2023-02-16T12:28:52.995Z,100849.89
2023-02-16T12:31:54.875Z,100844.84
2023-02-16T12:34:40.450Z,100839.78
2023-02-16T12:37:16.859Z,100838.91
2023-02-16T12:40:10.571Z,100847.72
2023-02-16T12:42:46.776Z,100842.42
2023-02-16T12:45:22.990Z,100841.66
2023-02-16T12:48:01.322Z,100842.09
2023-02-16T12:50:35.352Z,100840.59
2023-02-16T12:53:22.460Z,100845.14
2023-02-16T12:56:04.507Z,100850.63
2023-02-16T12:58:42.060Z,100849.17
2023-02-16T13:01:18.246Z,100847.89
2023-02-16T13:03:59.320Z,100855.58
2023-02-16T13:06:47.636Z,100850.97
2023-02-16T13:09:27.125Z,100855.77
2023-02-16T13:12:18.589Z,100853.96
2023-02-16T13:14:56.119Z,100853.12
2023-02-16T13:17:34.520Z,100849.78
2023-02-16T13:20:18.996Z,100851.41
2023-02-16T13:23:06.952Z,100850.28
2023-02-16T13:25:49.125Z,100844.64
2023-02-16T13:28:43.519Z,100843.92
2023-02-16T13:31:26.400Z,100844.70
2023-02-16T13:34:32.513Z,100841.02
2023-02-16T13:37:21.901Z,100835.48
2023-02-16T13:39:58.261Z,100829.95
2023-02-16T13:42:52.433Z,100833.52
2023-02-16T13:45:27.466Z,100828.47
2023-02-16T13:48:00.379Z,100834.06
2023-02-16T13:50:34.341Z,100828.25
2023-02-16T13:53:21.051Z,100827.48
2023-02-16T13:56:15.158Z,100827.56
2023-02-16T13:58:48.019Z,100834.61
2023-02-16T14:01:43.307Z,100830.59
2023-02-16T14:04:28.171Z,100834.05
2023-02-16T14:07:07.723Z,100832.56
2023-02-16T14:09:44.095Z,100820.13
2023-02-16T14:12:25.612Z,100824.70
2023-02-16T14:15:02.055Z,100829.52
2023-02-16T14:17:36.427Z,100829.94
2023-02-16T14:20:18.354Z,100830.35
2023-02-16T14:22:59.972Z,100827.96
2023-02-16T14:25:35.133Z,100830.18
2023-02-16T14:28:26.258Z,100833.84
2023-02-16T14:31:04.061Z,100834.41
2023-02-16T14:33:56.529Z,100839.32
2023-02-16T14:36:30.464Z,100832.02
2023-02-16T14:39:03.116Z,100831.62
2023-02-16T14:41:38.792Z,100838.21
2023-02-16T14:44:27.034Z,100838.97
2023-02-16T14:47:15.762Z,100838.77
2023-02-16T14:49:55.362Z,100831.25
2023-02-16T14:52:48.345Z,100840.36
2023-02-16T14:55:43.764Z,100839.22
2023-02-16T14:58:28.816Z,100842.47
2023-02-16T15:01:12.753Z,100841.92
2023-02-16T15:03:48.544Z,100847.43
2023-02-16T15:06:28.141Z,100845.21
2023-02-16T15:09:03.311Z,100845.77
2023-02-16T15:11:44.238Z,100856.71
2023-02-16T15:14:17.122Z,100846.80
2023-02-16T15:16:52.547Z,100849.36
2023-02-16T15:19:28.752Z,100854.88
2023-02-16T15:22:22.688Z,100861.88
2023-02-16T15:25:01.577Z,100859.34
2023-02-16T15:27:34.673Z,100854.25
2023-02-16T15:30:10.317Z,100866.00
2023-02-16T15:32:43.156Z,100856.67
2023-02-16T15:35:19.263Z,100856.16
2023-02-16T15:38:03.279Z,100856.33
2023-02-16T15:40:37.075Z,100851.96
2023-02-16T15:43:19.045Z,100855.66
2023-02-16T15:45:53.940Z,100859.89
2023-02-16T15:48:34.692Z,100860.23
2023-02-16T15:51:16.675Z,100856.39
2023-02-16T15:53:55.450Z,100857.67
2023-02-16T15:56:31.569Z,100856.25
2023-02-16T15:59:08.300Z,100860.06
2023-02-16T16:01:42.088Z,100854.91
2023-02-16T16:04:23.318Z,100854.88
2023-02-16T16:06:56.974Z,100854.70
2023-02-16T16:09:31.113Z,100855.81
2023-02-16T16:12:09.440Z,100855.25
2023-02-16T16:14:59.465Z,100858.38
2023-02-16T16:17:35.984Z,100857.44
2023-02-16T16:20:31.706Z,100859.10
2023-02-16T16:23:07.049Z,100856.36
2023-02-16T16:25:47.917Z,100866.06
2023-02-16T16:28:31.005Z,100863.32
2023-02-16T16:31:13.824Z,100864.78
2023-02-16T16:34:00.781Z,100859.48
2023-02-16T16:36:39.741Z,100864.61
2023-02-16T16:39:21.400Z,100864.78
2023-02-16T16:42:12.842Z,100859.48
2023-02-16T16:44:57.045Z,100863.87
2023-02-16T16:47:41.076Z,100862.62
2023-02-16T16:50:18.679Z,100860.06
2023-02-16T16:52:52.230Z,100864.84
2023-02-16T16:55:31.081Z,100869.61
2023-02-16T16:58:11.294Z,100864.52
2023-02-16T17:00:44.409Z,100859.39
2023-02-16T17:03:18.116Z,100858.31
2023-02-16T17:05:50.788Z,100860.87
2023-02-16T17:08:23.868Z,100859.21
2023-02-16T17:10:57.011Z,100857.41
2023-02-16T17:13:30.528Z,100854.30
2023-02-16T17:16:08.631Z,100854.30
2023-02-16T17:18:42.217Z,100851.00
2023-02-16T17:21:15.826Z,100847.73
2023-02-16T17:23:53.239Z,100851.20
2023-02-16T17:26:23.894Z,100839.88
2023-02-16T17:28:56.739Z,100848.47
2023-02-16T17:31:29.769Z,100840.60
2023-02-16T17:34:04.701Z,100839.33
2023-02-16T17:36:37.943Z,100839.33
2023-02-16T17:39:11.391Z,100838.98
2023-02-16T17:41:44.805Z,100835.83
2023-02-16T17:44:17.754Z,100835.28
2023-02-16T17:46:50.607Z,100835.89
2023-02-16T17:49:24.251Z,100837.19
2023-02-16T17:51:56.990Z,100833.92
2023-02-16T17:54:29.818Z,100836.34
2023-02-16T17:57:02.628Z,100840.20
2023-02-16T17:59:37.216Z,100843.48
2023-02-16T18:02:13.506Z,100840.19
2023-02-16T18:04:46.360Z,100838.02
2023-02-16T18:07:19.978Z,100837.28
2023-02-16T18:09:53.422Z,100840.37
2023-02-16T18:12:28.409Z,100837.83
2023-02-16T18:15:00.762Z,100841.12
2023-02-16T18:17:33.658Z,100842.59
2023-02-16T18:20:07.340Z,100840.77
2023-02-16T18:22:40.300Z,100840.58
2023-02-16T18:25:13.321Z,100843.92
2023-02-16T18:27:47.580Z,100842.63
2023-02-16T18:30:20.784Z,100843.21
2023-02-16T18:32:54.282Z,100839.02
2023-02-16T18:35:27.562Z,100836.44
2023-02-16T18:38:01.578Z,100837.90
2023-02-16T18:40:34.456Z,100837.53
2023-02-16T18:43:07.218Z,100840.47
2023-02-16T18:45:42.685Z,100839.38
2023-02-16T18:48:15.781Z,100835.38
2023-02-16T18:50:48.515Z,100832.66
2023-02-16T18:53:21.167Z,100837.59
2023-02-16T18:55:53.837Z,100834.67
2023-02-16T18:58:26.708Z,100827.75
2023-02-16T19:01:01.177Z,100828.83
2023-02-16T19:03:34.617Z,100830.83
2023-02-16T19:06:08.603Z,100824.27
2023-02-16T19:08:41.416Z,100827.55
2023-02-16T19:11:14.752Z,100829.01
2023-02-16T19:13:51.515Z,100821.16
2023-02-16T19:16:24.472Z,100824.61
2023-02-16T19:18:57.390Z,100825.73
2023-02-16T19:21:30.350Z,100815.85
2023-02-16T19:24:04.409Z,100820.59
2023-02-16T19:26:37.367Z,100816.57
2023-02-16T19:29:10.186Z,100814.57
2023-02-16T19:31:43.353Z,100816.75
2023-02-16T19:34:17.176Z,100819.31
2023-02-16T19:36:50.318Z,100819.71
2023-02-16T19:39:22.935Z,100830.14
2023-02-16T19:41:55.708Z,100825.22
2023-02-16T19:44:28.719Z,100828.36
2023-02-16T19:47:03.372Z,100817.56
2023-02-16T19:49:36.711Z,100816.13
2023-02-16T19:52:09.468Z,100816.50
2023-02-16T19:54:43.005Z,100819.41
2023-02-16T19:57:15.728Z,100817.96
2023-02-16T19:59:52.027Z,100812.11
2023-02-16T20:02:25.772Z,100815.39
2023-02-16T20:04:58.801Z,100822.32
2023-02-16T20:07:32.028Z,100823.23
2023-02-16T20:10:05.240Z,100825.05
2023-02-16T20:12:38.353Z,100827.20
2023-02-16T20:15:14.270Z,100828.30
2023-02-16T20:17:47.956Z,100824.44
2023-02-16T20:20:22.379Z,100829.35
2023-02-16T20:22:55.299Z,100823.87
2023-02-16T20:25:28.077Z,100821.31
2023-02-16T20:28:01.025Z,100829.34
2023-02-16T20:30:33.930Z,100828.59
2023-02-16T20:33:06.845Z,100832.01
2023-02-16T20:35:39.778Z,100837.30
2023-02-16T20:38:12.679Z,100836.36
2023-02-16T20:40:45.963Z,100830.16
2023-02-16T20:43:20.304Z,100833.60
2023-02-16T20:45:53.205Z,100836.10
2023-02-16T20:48:26.504Z,100840.44
2023-02-16T20:51:01.615Z,100838.41
2023-02-16T20:53:35.742Z,100841.84
2023-02-16T20:56:17.024Z,100841.44
2023-02-16T20:58:51.500Z,100843.41
2023-02-16T21:01:27.438Z,100836.46
2023-02-16T21:04:01.543Z,100835.36
2023-02-16T21:06:35.442Z,100835.67
2023-02-16T21:09:09.405Z,100833.69
2023-02-16T21:11:43.281Z,100828.20
2023-02-16T21:14:16.380Z,100827.97
2023-02-16T21:16:50.698Z,100831.95
2023-02-16T21:19:23.774Z,100832.64
2023-02-16T21:21:56.973Z,100829.70
2023-02-16T21:24:29.718Z,100834.09
2023-02-16T21:27:02.889Z,100836.97
2023-02-16T21:29:36.459Z,100840.42
2023-02-16T21:32:09.809Z,100834.05
2023-02-16T21:34:43.553Z,100832.95
2023-02-16T21:37:16.178Z,100832.19
2023-02-16T21:40:07.091Z,100830.52
2023-02-16T21:42:40.135Z,100832.48
2023-02-16T21:45:13.433Z,100830.11
2023-02-16T21:48:05.193Z,100828.31
2023-02-16T21:50:40.384Z,100829.20
2023-02-16T21:53:13.370Z,100829.70
2023-02-16T21:56:04.920Z,100830.08
2023-02-16T21:58:37.900Z,100829.87
2023-02-16T22:01:10.893Z,100820.71
2023-02-16T22:03:43.655Z,100828.53
2023-02-16T22:06:16.760Z,100830.31
2023-02-16T22:08:49.617Z,100823.73
2023-02-16T22:11:23.197Z,100823.53
2023-02-16T22:13:58.261Z,100829.00
2023-02-16T22:16:33.516Z,100830.84
2023-02-16T22:19:09.166Z,100819.30
2023-02-16T22:21:43.149Z,100816.28
2023-02-16T22:24:17.185Z,100812.47
2023-02-16T22:26:50.388Z,100813.75
2023-02-16T22:29:23.216Z,100808.14
2023-02-16T22:31:56.578Z,100808.55
2023-02-16T22:34:29.184Z,100810.91
2023-02-16T22:37:02.189Z,100808.95
2023-02-16T22:39:35.494Z,100811.38
2023-02-16T22:42:08.355Z,100812.52
2023-02-16T22:44:42.518Z,100816.87
2023-02-16T22:47:15.504Z,100816.37
2023-02-16T22:49:48.829Z,100810.39
2023-02-16T22:52:22.264Z,100815.55
2023-02-16T22:54:55.193Z,100807.39
2023-02-16T22:57:28.463Z,100806.33
2023-02-16T23:00:01.183Z,100809.83
2023-02-16T23:02:34.296Z,100806.95
2023-02-16T23:05:07.317Z,100805.49
2023-02-16T23:07:40.145Z,100803.69
2023-02-16T23:10:15.688Z,100807.19
2023-02-16T23:12:48.593Z,100813.94
2023-02-16T23:15:21.818Z,100815.41
2023-02-16T23:17:55.159Z,100819.05
2023-02-16T23:20:28.896Z,100813.77
2023-02-16T23:23:01.573Z,100817.78
2023-02-16T23:25:34.418Z,100813.80
2023-02-16T23:28:07.682Z,100815.80
2023-02-16T23:30:45.104Z,100813.43
2023-02-16T23:33:18.857Z,100805.06
2023-02-16T23:35:51.631Z,100805.77
2023-02-16T23:38:25.360Z,100806.15
2023-02-16T23:41:03.192Z,100805.06
2023-02-16T23:43:36.951Z,100804.16
2023-02-16T23:46:09.973Z,100801.05
2023-02-16T23:48:44.032Z,100798.30
2023-02-16T23:51:17.231Z,100791.92
2023-02-16T23:53:50.187Z,100793.20
2023-02-16T23:56:25.385Z,100790.98
2023-02-16T23:59:00.349Z,100794.81
